sensor_id;sensor_type;location;lat;lon;timestamp;pressure;altitude;pressure_sealevel;temperature;humidity
6144;BME280;3103;49.492;8.474;2024-01-27T00:00:01;102345.88;;;8.22;61.98
6144;BME280;3103;49.492;8.474;2024-01-27T00:02:35;102349.59;;;8.13;62.73
6144;BME280;3103;49.492;8.474;2024-01-27T00:05:02;102363.13;;;8.19;62.90
6144;BME280;3103;49.492;8.474;2024-01-27T00:07:30;102371.50;;;8.16;63.17
6144;BME280;3103;49.492;8.474;2024-01-27T00:09:57;102359.84;;;8.09;63.93
6144;BME280;3103;49.492;8.474;2024-01-27T00:12:25;102358.38;;;7.98;63.72
6144;BME280;3103;49.492;8.474;2024-01-27T00:14:53;102355.75;;;8.21;63.51
6144;BME280;3103;49.492;8.474;2024-01-27T00:17:20;102362.13;;;8.20;63.49
6144;BME280;3103;49.492;8.474;2024-01-27T00:19:51;102359.81;;;8.17;63.39
6144;BME280;3103;49.492;8.474;2024-01-27T00:22:18;102365.16;;;8.17;63.38
6144;BME280;3103;49.492;8.474;2024-01-27T00:24:47;102362.63;;;8.16;63.74
6144;BME280;3103;49.492;8.474;2024-01-27T00:27:14;102366.31;;;8.15;63.57
6144;BME280;3103;49.492;8.474;2024-01-27T00:29:42;102352.19;;;7.98;64.22
6144;BME280;3103;49.492;8.474;2024-01-27T00:32:09;102352.84;;;8.00;63.85
6144;BME280;3103;49.492;8.474;2024-01-27T00:34:36;102353.84;;;7.99;63.97
6144;BME280;3103;49.492;8.474;2024-01-27T00:37:02;102358.75;;;7.87;63.94
6144;BME280;3103;49.492;8.474;2024-01-27T00:39:31;102358.38;;;7.59;65.71
6144;BME280;3103;49.492;8.474;2024-01-27T00:41:58;102372.59;;;7.60;66.00
6144;BME280;3103;49.492;8.474;2024-01-27T00:44:26;102375.13;;;7.53;65.92
6144;BME280;3103;49.492;8.474;2024-01-27T00:46:53;102372.81;;;7.42;66.33
6144;BME280;3103;49.492;8.474;2024-01-27T00:49:20;102373.47;;;7.52;65.56
6144;BME280;3103;49.492;8.474;2024-01-27T00:51:47;102381.88;;;7.88;64.99
6144;BME280;3103;49.492;8.474;2024-01-27T00:54:14;102379.69;;;7.92;65.41
6144;BME280;3103;49.492;8.474;2024-01-27T00:56:41;102382.75;;;7.72;65.46
6144;BME280;3103;49.492;8.474;2024-01-27T00:59:08;102389.34;;;7.54;65.55
6144;BME280;3103;49.492;8.474;2024-01-27T01:01:35;102386.56;;;7.31;66.11
6144;BME280;3103;49.492;8.474;2024-01-27T01:04:01;102385.00;;;7.44;65.61
6144;BME280;3103;49.492;8.474;2024-01-27T01:06:29;102383.59;;;7.09;66.46
6144;BME280;3103;49.492;8.474;2024-01-27T01:08:56;102385.59;;;7.07;66.88
6144;BME280;3103;49.492;8.474;2024-01-27T01:11:23;102382.75;;;7.09;67.08
6144;BME280;3103;49.492;8.474;2024-01-27T01:13:49;102379.09;;;6.85;67.54
6144;BME280;3103;49.492;8.474;2024-01-27T01:16:16;102383.94;;;7.06;67.23
6144;BME280;3103;49.492;8.474;2024-01-27T01:18:43;102389.63;;;6.79;67.90
6144;BME280;3103;49.492;8.474;2024-01-27T01:21:10;102395.63;;;6.89;67.82
6144;BME280;3103;49.492;8.474;2024-01-27T01:23:37;102394.63;;;6.82;68.14
6144;BME280;3103;49.492;8.474;2024-01-27T01:26:04;102400.63;;;7.08;67.26
6144;BME280;3103;49.492;8.474;2024-01-27T01:28:31;102408.00;;;6.98;67.32
6144;BME280;3103;49.492;8.474;2024-01-27T01:30:59;102414.00;;;7.08;66.86
6144;BME280;3103;49.492;8.474;2024-01-27T01:33:26;102410.00;;;7.21;66.24
6144;BME280;3103;49.492;8.474;2024-01-27T01:35:53;102421.69;;;6.95;67.17
6144;BME280;3103;49.492;8.474;2024-01-27T01:38:20;102426.53;;;6.83;66.70
6144;BME280;3103;49.492;8.474;2024-01-27T01:40:47;102425.84;;;6.90;66.77
6144;BME280;3103;49.492;8.474;2024-01-27T01:43:14;102428.22;;;6.93;66.92
6144;BME280;3103;49.492;8.474;2024-01-27T01:45:41;102424.34;;;7.20;66.60
6144;BME280;3103;49.492;8.474;2024-01-27T01:48:08;102429.16;;;7.40;66.20
6144;BME280;3103;49.492;8.474;2024-01-27T01:50:35;102424.81;;;7.48;65.61
6144;BME280;3103;49.492;8.474;2024-01-27T01:53:03;102426.63;;;7.55;65.17
6144;BME280;3103;49.492;8.474;2024-01-27T01:55:31;102416.09;;;7.54;65.51
6144;BME280;3103;49.492;8.474;2024-01-27T01:57:58;102416.78;;;7.48;66.19
6144;BME280;3103;49.492;8.474;2024-01-27T02:00:25;102420.31;;;7.32;65.44
6144;BME280;3103;49.492;8.474;2024-01-27T02:02:52;102418.66;;;7.23;64.90
6144;BME280;3103;49.492;8.474;2024-01-27T02:05:19;102414.69;;;6.94;66.29
6144;BME280;3103;49.492;8.474;2024-01-27T02:07:46;102429.34;;;6.74;67.03
6144;BME280;3103;49.492;8.474;2024-01-27T02:10:15;102426.84;;;6.48;68.22
6144;BME280;3103;49.492;8.474;2024-01-27T02:12:45;102428.16;;;6.60;67.91
6144;BME280;3103;49.492;8.474;2024-01-27T02:15:13;102427.69;;;6.81;67.36
6144;BME280;3103;49.492;8.474;2024-01-27T02:17:41;102427.22;;;6.94;66.59
6144;BME280;3103;49.492;8.474;2024-01-27T02:20:09;102431.53;;;6.70;66.72
6144;BME280;3103;49.492;8.474;2024-01-27T02:22:36;102434.19;;;6.54;67.62
6144;BME280;3103;49.492;8.474;2024-01-27T02:25:03;102441.56;;;7.01;67.04
6144;BME280;3103;49.492;8.474;2024-01-27T02:27:31;102435.38;;;7.17;66.21
6144;BME280;3103;49.492;8.474;2024-01-27T02:29:57;102448.75;;;7.25;65.72
6144;BME280;3103;49.492;8.474;2024-01-27T02:32:24;102451.41;;;7.17;66.58
6144;BME280;3103;49.492;8.474;2024-01-27T02:34:51;102445.41;;;7.14;66.57
6144;BME280;3103;49.492;8.474;2024-01-27T02:37:18;102457.41;;;7.02;67.18
6144;BME280;3103;49.492;8.474;2024-01-27T02:39:46;102452.56;;;6.90;67.51
6144;BME280;3103;49.492;8.474;2024-01-27T02:42:13;102453.09;;;6.93;67.46
6144;BME280;3103;49.492;8.474;2024-01-27T02:44:40;102456.59;;;6.94;67.27
6144;BME280;3103;49.492;8.474;2024-01-27T02:47:07;102455.09;;;6.83;67.65
6144;BME280;3103;49.492;8.474;2024-01-27T02:49:34;102450.25;;;6.87;67.03
6144;BME280;3103;49.492;8.474;2024-01-27T02:52:01;102449.06;;;6.89;67.06
6144;BME280;3103;49.492;8.474;2024-01-27T02:54:28;102454.09;;;6.76;67.63
6144;BME280;3103;49.492;8.474;2024-01-27T02:56:55;102460.38;;;6.59;68.33
6144;BME280;3103;49.492;8.474;2024-01-27T02:59:22;102466.03;;;6.39;69.48
6144;BME280;3103;49.492;8.474;2024-01-27T03:01:49;102466.50;;;6.35;69.85
6144;BME280;3103;49.492;8.474;2024-01-27T03:04:16;102470.97;;;6.26;70.25
6144;BME280;3103;49.492;8.474;2024-01-27T03:06:43;102469.81;;;6.20;70.43
6144;BME280;3103;49.492;8.474;2024-01-27T03:09:11;102469.94;;;6.19;70.48
6144;BME280;3103;49.492;8.474;2024-01-27T03:11:38;102471.97;;;6.25;70.73
6144;BME280;3103;49.492;8.474;2024-01-27T03:14:05;102474.47;;;6.27;69.90
6144;BME280;3103;49.492;8.474;2024-01-27T03:16:32;102467.81;;;6.31;69.76
6144;BME280;3103;49.492;8.474;2024-01-27T03:18:59;102465.97;;;6.23;70.12
6144;BME280;3103;49.492;8.474;2024-01-27T03:21:27;102475.16;;;6.20;69.81
6144;BME280;3103;49.492;8.474;2024-01-27T03:23:54;102479.66;;;6.20;70.32
6144;BME280;3103;49.492;8.474;2024-01-27T03:26:21;102475.66;;;6.24;70.21
6144;BME280;3103;49.492;8.474;2024-01-27T03:28:48;102476.69;;;6.39;69.79
6144;BME280;3103;49.492;8.474;2024-01-27T03:31:15;102467.84;;;6.39;69.94
6144;BME280;3103;49.492;8.474;2024-01-27T03:33:42;102472.84;;;6.34;70.59
6144;BME280;3103;49.492;8.474;2024-01-27T03:36:13;102465.84;;;6.41;70.46
6144;BME280;3103;49.492;8.474;2024-01-27T03:38:40;102468.97;;;6.28;71.43
6144;BME280;3103;49.492;8.474;2024-01-27T03:41:07;102466.94;;;6.14;71.05
6144;BME280;3103;49.492;8.474;2024-01-27T03:43:34;102470.44;;;6.14;70.84
6144;BME280;3103;49.492;8.474;2024-01-27T03:46:01;102465.91;;;6.07;71.92
6144;BME280;3103;49.492;8.474;2024-01-27T03:48:29;102478.09;;;6.09;71.89
6144;BME280;3103;49.492;8.474;2024-01-27T03:50:56;102473.81;;;6.33;71.18
6144;BME280;3103;49.492;8.474;2024-01-27T03:53:23;102471.84;;;6.35;70.62
6144;BME280;3103;49.492;8.474;2024-01-27T03:55:50;102469.09;;;5.58;72.46
6144;BME280;3103;49.492;8.474;2024-01-27T03:58:17;102476.09;;;6.11;71.19
6144;BME280;3103;49.492;8.474;2024-01-27T04:00:44;102473.59;;;6.18;71.29
6144;BME280;3103;49.492;8.474;2024-01-27T04:03:12;102470.25;;;6.16;71.01
6144;BME280;3103;49.492;8.474;2024-01-27T04:05:40;102477.44;;;6.15;70.77
6144;BME280;3103;49.492;8.474;2024-01-27T04:08:07;102476.66;;;6.23;71.38
6144;BME280;3103;49.492;8.474;2024-01-27T04:10:33;102488.25;;;6.06;71.54
6144;BME280;3103;49.492;8.474;2024-01-27T04:13:00;102484.88;;;5.95;71.70
6144;BME280;3103;49.492;8.474;2024-01-27T04:15:27;102492.22;;;6.02;71.21
6144;BME280;3103;49.492;8.474;2024-01-27T04:17:55;102485.44;;;5.89;71.77
6144;BME280;3103;49.492;8.474;2024-01-27T04:20:22;102493.38;;;5.99;72.59
6144;BME280;3103;49.492;8.474;2024-01-27T04:22:49;102501.19;;;5.92;71.74
6144;BME280;3103;49.492;8.474;2024-01-27T04:25:16;102504.09;;;5.81;72.78
6144;BME280;3103;49.492;8.474;2024-01-27T04:27:43;102505.38;;;5.95;72.02
6144;BME280;3103;49.492;8.474;2024-01-27T04:30:11;102505.22;;;5.97;72.20
6144;BME280;3103;49.492;8.474;2024-01-27T04:32:38;102520.81;;;6.17;71.67
6144;BME280;3103;49.492;8.474;2024-01-27T04:35:10;102522.03;;;6.23;70.13
6144;BME280;3103;49.492;8.474;2024-01-27T04:37:37;102514.06;;;6.05;70.91
6144;BME280;3103;49.492;8.474;2024-01-27T04:40:05;102511.53;;;5.95;71.43
6144;BME280;3103;49.492;8.474;2024-01-27T04:42:38;102514.25;;;6.04;72.08
6144;BME280;3103;49.492;8.474;2024-01-27T04:45:07;102516.06;;;5.95;72.13
6144;BME280;3103;49.492;8.474;2024-01-27T04:47:34;102510.84;;;5.68;72.54
6144;BME280;3103;49.492;8.474;2024-01-27T04:50:02;102508.78;;;5.61;71.53
6144;BME280;3103;49.492;8.474;2024-01-27T04:52:32;102509.53;;;5.28;73.12
6144;BME280;3103;49.492;8.474;2024-01-27T04:54:59;102507.03;;;5.26;73.07
6144;BME280;3103;49.492;8.474;2024-01-27T04:57:29;102514.22;;;5.08;73.54
6144;BME280;3103;49.492;8.474;2024-01-27T04:59:56;102522.59;;;5.13;74.03
6144;BME280;3103;49.492;8.474;2024-01-27T05:02:23;102510.53;;;4.91;74.52
6144;BME280;3103;49.492;8.474;2024-01-27T05:04:49;102518.47;;;5.01;74.62
6144;BME280;3103;49.492;8.474;2024-01-27T05:07:16;102515.56;;;5.12;73.92
6144;BME280;3103;49.492;8.474;2024-01-27T05:09:43;102511.16;;;5.03;74.25
6144;BME280;3103;49.492;8.474;2024-01-27T05:12:10;102511.59;;;5.34;74.31
6144;BME280;3103;49.492;8.474;2024-01-27T05:14:37;102515.22;;;5.51;73.70
6144;BME280;3103;49.492;8.474;2024-01-27T05:17:04;102521.34;;;5.25;75.10
6144;BME280;3103;49.492;8.474;2024-01-27T05:19:31;102518.00;;;5.23;74.16
6144;BME280;3103;49.492;8.474;2024-01-27T05:21:58;102519.81;;;5.41;73.79
6144;BME280;3103;49.492;8.474;2024-01-27T05:24:26;102511.75;;;5.15;73.88
6144;BME280;3103;49.492;8.474;2024-01-27T05:26:53;102513.66;;;5.40;73.05
6144;BME280;3103;49.492;8.474;2024-01-27T05:29:20;102533.91;;;5.33;73.69
6144;BME280;3103;49.492;8.474;2024-01-27T05:31:47;102522.00;;;5.45;73.29
6144;BME280;3103;49.492;8.474;2024-01-27T05:34:14;102521.84;;;5.47;73.26
6144;BME280;3103;49.492;8.474;2024-01-27T05:36:41;102530.00;;;5.45;72.83
6144;BME280;3103;49.492;8.474;2024-01-27T05:39:09;102529.09;;;5.54;72.00
6144;BME280;3103;49.492;8.474;2024-01-27T05:41:35;102529.72;;;5.30;72.22
6144;BME280;3103;49.492;8.474;2024-01-27T05:44:02;102536.59;;;5.15;72.80
6144;BME280;3103;49.492;8.474;2024-01-27T05:46:29;102536.38;;;5.09;73.58
6144;BME280;3103;49.492;8.474;2024-01-27T05:48:56;102545.88;;;5.11;73.36
6144;BME280;3103;49.492;8.474;2024-01-27T05:51:28;102540.88;;;5.08;73.41
6144;BME280;3103;49.492;8.474;2024-01-27T05:53:57;102540.56;;;5.11;73.61
6144;BME280;3103;49.492;8.474;2024-01-27T05:56:23;102532.25;;;5.14;75.65
6144;BME280;3103;49.492;8.474;2024-01-27T05:58:52;102540.56;;;5.11;73.37
6144;BME280;3103;49.492;8.474;2024-01-27T06:01:19;102545.47;;;5.06;73.87
6144;BME280;3103;49.492;8.474;2024-01-27T06:03:47;102552.41;;;4.99;75.73
6144;BME280;3103;49.492;8.474;2024-01-27T06:06:14;102554.25;;;5.16;76.00
6144;BME280;3103;49.492;8.474;2024-01-27T06:08:41;102547.94;;;4.99;76.07
6144;BME280;3103;49.492;8.474;2024-01-27T06:11:08;102544.00;;;5.21;75.26
6144;BME280;3103;49.492;8.474;2024-01-27T06:13:36;102557.53;;;5.10;74.57
6144;BME280;3103;49.492;8.474;2024-01-27T06:16:08;102564.38;;;4.95;74.34
6144;BME280;3103;49.492;8.474;2024-01-27T06:18:36;102562.00;;;4.64;75.68
6144;BME280;3103;49.492;8.474;2024-01-27T06:21:05;102560.94;;;4.85;76.23
6144;BME280;3103;49.492;8.474;2024-01-27T06:23:33;102560.78;;;4.86;75.33
6144;BME280;3103;49.492;8.474;2024-01-27T06:26:07;102568.63;;;5.05;75.16
6144;BME280;3103;49.492;8.474;2024-01-27T06:28:35;102569.25;;;4.99;74.73
6144;BME280;3103;49.492;8.474;2024-01-27T06:31:03;102568.88;;;4.94;75.37
6144;BME280;3103;49.492;8.474;2024-01-27T06:33:31;102569.09;;;5.01;73.93
6144;BME280;3103;49.492;8.474;2024-01-27T06:35:58;102562.81;;;4.92;74.15
6144;BME280;3103;49.492;8.474;2024-01-27T06:38:26;102563.28;;;4.88;73.80
6144;BME280;3103;49.492;8.474;2024-01-27T06:40:53;102565.25;;;4.68;75.80
6144;BME280;3103;49.492;8.474;2024-01-27T06:43:21;102560.84;;;4.49;76.74
6144;BME280;3103;49.492;8.474;2024-01-27T06:45:48;102571.44;;;4.59;77.12
6144;BME280;3103;49.492;8.474;2024-01-27T06:48:15;102560.91;;;4.67;76.34
6144;BME280;3103;49.492;8.474;2024-01-27T06:50:42;102557.94;;;4.70;76.52
6144;BME280;3103;49.492;8.474;2024-01-27T06:53:09;102566.75;;;4.70;77.33
6144;BME280;3103;49.492;8.474;2024-01-27T06:55:37;102567.13;;;4.75;77.23
6144;BME280;3103;49.492;8.474;2024-01-27T06:58:09;102563.22;;;4.80;76.61
6144;BME280;3103;49.492;8.474;2024-01-27T07:00:35;102568.09;;;4.84;77.77
6144;BME280;3103;49.492;8.474;2024-01-27T07:03:05;102562.56;;;4.95;77.78
6144;BME280;3103;49.492;8.474;2024-01-27T07:05:33;102563.22;;;4.80;78.48
6144;BME280;3103;49.492;8.474;2024-01-27T07:08:09;102562.00;;;4.92;77.03
6144;BME280;3103;49.492;8.474;2024-01-27T07:10:36;102563.75;;;4.83;76.65
6144;BME280;3103;49.492;8.474;2024-01-27T07:13:03;102564.91;;;4.98;75.52
6144;BME280;3103;49.492;8.474;2024-01-27T07:15:29;102566.72;;;4.98;75.40
6144;BME280;3103;49.492;8.474;2024-01-27T07:17:57;102570.56;;;4.68;77.13
6144;BME280;3103;49.492;8.474;2024-01-27T07:20:24;102563.06;;;4.81;77.27
6144;BME280;3103;49.492;8.474;2024-01-27T07:22:51;102563.53;;;4.94;77.81
6144;BME280;3103;49.492;8.474;2024-01-27T07:25:18;102570.38;;;4.97;76.36
6144;BME280;3103;49.492;8.474;2024-01-27T07:27:45;102568.47;;;4.89;76.60
6144;BME280;3103;49.492;8.474;2024-01-27T07:30:14;102563.06;;;4.81;77.66
6144;BME280;3103;49.492;8.474;2024-01-27T07:32:42;102572.66;;;4.92;78.42
6144;BME280;3103;49.492;8.474;2024-01-27T07:35:10;102570.84;;;5.10;78.75
6144;BME280;3103;49.492;8.474;2024-01-27T07:37:38;102585.44;;;5.06;77.45
6144;BME280;3103;49.492;8.474;2024-01-27T07:40:05;102569.44;;;4.88;77.96
6144;BME280;3103;49.492;8.474;2024-01-27T07:42:32;102575.03;;;4.95;77.14
6144;BME280;3103;49.492;8.474;2024-01-27T07:44:59;102575.41;;;5.00;75.81
6144;BME280;3103;49.492;8.474;2024-01-27T07:47:27;102576.28;;;4.91;77.52
6144;BME280;3103;49.492;8.474;2024-01-27T07:49:54;102577.06;;;5.01;77.82
6144;BME280;3103;49.492;8.474;2024-01-27T07:52:21;102580.84;;;5.08;77.66
6144;BME280;3103;49.492;8.474;2024-01-27T07:54:48;102579.31;;;5.23;74.71
6144;BME280;3103;49.492;8.474;2024-01-27T07:57:15;102584.09;;;5.20;74.27
6144;BME280;3103;49.492;8.474;2024-01-27T07:59:42;102576.91;;;4.85;76.02
6144;BME280;3103;49.492;8.474;2024-01-27T08:02:09;102575.38;;;4.82;76.90
6144;BME280;3103;49.492;8.474;2024-01-27T08:04:38;102565.03;;;4.79;77.98
6144;BME280;3103;49.492;8.474;2024-01-27T08:07:05;102565.53;;;4.65;77.43
6144;BME280;3103;49.492;8.474;2024-01-27T08:09:37;102571.41;;;4.68;78.14
6144;BME280;3103;49.492;8.474;2024-01-27T08:12:05;102566.88;;;4.79;77.79
6144;BME280;3103;49.492;8.474;2024-01-27T08:14:34;102565.97;;;5.05;76.56
6144;BME280;3103;49.492;8.474;2024-01-27T08:17:02;102569.25;;;5.35;75.14
6144;BME280;3103;49.492;8.474;2024-01-27T08:19:30;102569.69;;;5.48;73.95
6144;BME280;3103;49.492;8.474;2024-01-27T08:21:57;102562.84;;;5.46;74.48
6144;BME280;3103;49.492;8.474;2024-01-27T08:24:24;102570.53;;;5.49;76.53
6144;BME280;3103;49.492;8.474;2024-01-27T08:26:51;102566.38;;;5.72;76.00
6144;BME280;3103;49.492;8.474;2024-01-27T08:29:18;102569.16;;;5.88;75.47
6144;BME280;3103;49.492;8.474;2024-01-27T08:31:45;102574.78;;;6.03;74.85
6144;BME280;3103;49.492;8.474;2024-01-27T08:34:13;102580.97;;;6.04;75.08
6144;BME280;3103;49.492;8.474;2024-01-27T08:36:41;102576.31;;;6.06;74.97
6144;BME280;3103;49.492;8.474;2024-01-27T08:39:08;102581.22;;;6.18;74.75
6144;BME280;3103;49.492;8.474;2024-01-27T08:41:35;102577.88;;;6.16;73.70
6144;BME280;3103;49.492;8.474;2024-01-27T08:44:03;102575.88;;;6.52;75.82
6144;BME280;3103;49.492;8.474;2024-01-27T08:46:30;102571.31;;;6.79;74.25
6144;BME280;3103;49.492;8.474;2024-01-27T08:48:57;102581.38;;;7.01;72.10
6144;BME280;3103;49.492;8.474;2024-01-27T08:51:24;102581.66;;;6.82;69.06
6144;BME280;3103;49.492;8.474;2024-01-27T08:53:55;102590.84;;;6.79;69.67
6144;BME280;3103;49.492;8.474;2024-01-27T08:56:23;102591.25;;;6.59;69.76
6144;BME280;3103;49.492;8.474;2024-01-27T08:58:52;102595.63;;;7.42;67.93
6144;BME280;3103;49.492;8.474;2024-01-27T09:01:20;102598.22;;;8.40;63.06
6144;BME280;3103;49.492;8.474;2024-01-27T09:03:49;102608.59;;;8.43;62.10
6144;BME280;3103;49.492;8.474;2024-01-27T09:06:17;102608.19;;;7.50;64.57
6144;BME280;3103;49.492;8.474;2024-01-27T09:08:47;102612.19;;;7.38;67.35
6144;BME280;3103;49.492;8.474;2024-01-27T09:11:17;102627.22;;;7.31;67.10
6144;BME280;3103;49.492;8.474;2024-01-27T09:13:48;102625.63;;;6.96;68.41
6144;BME280;3103;49.492;8.474;2024-01-27T09:16:19;102621.75;;;6.82;68.19
6144;BME280;3103;49.492;8.474;2024-01-27T09:18:46;102622.53;;;6.06;71.75
6144;BME280;3103;49.492;8.474;2024-01-27T09:21:14;102621.78;;;6.22;71.15
6144;BME280;3103;49.492;8.474;2024-01-27T09:23:47;102627.81;;;5.98;73.06
6144;BME280;3103;49.492;8.474;2024-01-27T09:26:14;102621.31;;;6.27;72.81
6144;BME280;3103;49.492;8.474;2024-01-27T09:28:41;102619.41;;;6.19;72.56
6144;BME280;3103;49.492;8.474;2024-01-27T09:31:10;102628.63;;;6.50;72.99
6144;BME280;3103;49.492;8.474;2024-01-27T09:33:37;102626.88;;;6.75;72.51
6144;BME280;3103;49.492;8.474;2024-01-27T09:36:04;102634.53;;;7.12;70.31
6144;BME280;3103;49.492;8.474;2024-01-27T09:38:31;102635.88;;;7.08;70.22
6144;BME280;3103;49.492;8.474;2024-01-27T09:40:58;102632.22;;;7.26;69.94
6144;BME280;3103;49.492;8.474;2024-01-27T09:43:27;102634.19;;;6.31;71.42
6144;BME280;3103;49.492;8.474;2024-01-27T09:45:55;102640.00;;;6.95;71.04
6144;BME280;3103;49.492;8.474;2024-01-27T09:48:25;102637.56;;;7.26;69.83
6144;BME280;3103;49.492;8.474;2024-01-27T09:50:53;102631.16;;;6.94;69.24
6144;BME280;3103;49.492;8.474;2024-01-27T09:53:21;102638.25;;;7.20;69.13
6144;BME280;3103;49.492;8.474;2024-01-27T09:55:48;102637.03;;;7.06;68.71
6144;BME280;3103;49.492;8.474;2024-01-27T09:58:15;102637.25;;;7.29;68.61
6144;BME280;3103;49.492;8.474;2024-01-27T10:00:42;102625.91;;;7.43;68.36
6144;BME280;3103;49.492;8.474;2024-01-27T10:03:10;102629.72;;;7.24;68.32
6144;BME280;3103;49.492;8.474;2024-01-27T10:05:37;102616.03;;;7.19;68.95
6144;BME280;3103;49.492;8.474;2024-01-27T10:08:06;102602.50;;;7.37;68.55
6144;BME280;3103;49.492;8.474;2024-01-27T10:10:35;102609.69;;;7.53;69.38
6144;BME280;3103;49.492;8.474;2024-01-27T10:13:03;102607.00;;;7.44;68.36
6144;BME280;3103;49.492;8.474;2024-01-27T10:15:30;102601.19;;;7.49;67.82
6144;BME280;3103;49.492;8.474;2024-01-27T10:18:06;102611.53;;;7.68;67.41
6144;BME280;3103;49.492;8.474;2024-01-27T10:20:34;102612.69;;;7.58;67.17
6144;BME280;3103;49.492;8.474;2024-01-27T10:23:11;102623.25;;;7.92;65.63
6144;BME280;3103;49.492;8.474;2024-01-27T10:25:39;102624.72;;;7.86;66.54
6144;BME280;3103;49.492;8.474;2024-01-27T10:28:07;102615.22;;;7.92;65.98
6144;BME280;3103;49.492;8.474;2024-01-27T10:30:37;102608.50;;;8.04;65.46
6144;BME280;3103;49.492;8.474;2024-01-27T10:33:07;102599.78;;;8.10;65.25
6144;BME280;3103;49.492;8.474;2024-01-27T10:35:34;102600.47;;;8.04;65.64
6144;BME280;3103;49.492;8.474;2024-01-27T10:38:01;102604.66;;;8.07;65.66
6144;BME280;3103;49.492;8.474;2024-01-27T10:40:28;102591.56;;;8.20;66.41
6144;BME280;3103;49.492;8.474;2024-01-27T10:43:06;102606.59;;;8.84;63.79
6144;BME280;3103;49.492;8.474;2024-01-27T10:45:38;102603.88;;;9.46;62.13
6144;BME280;3103;49.492;8.474;2024-01-27T10:48:09;102606.28;;;10.31;58.86
6144;BME280;3103;49.492;8.474;2024-01-27T10:50:41;102595.50;;;10.76;56.99
6144;BME280;3103;49.492;8.474;2024-01-27T10:53:25;102596.06;;;10.86;55.58
6144;BME280;3103;49.492;8.474;2024-01-27T10:55:57;102591.28;;;11.03;55.65
6144;BME280;3103;49.492;8.474;2024-01-27T10:58:26;102587.41;;;10.90;55.40
6144;BME280;3103;49.492;8.474;2024-01-27T11:00:53;102585.25;;;10.50;56.62
6144;BME280;3103;49.492;8.474;2024-01-27T11:03:22;102584.75;;;10.17;57.30
6144;BME280;3103;49.492;8.474;2024-01-27T11:05:54;102583.31;;;9.76;59.02
6144;BME280;3103;49.492;8.474;2024-01-27T11:08:23;102585.00;;;9.09;59.52
6144;BME280;3103;49.492;8.474;2024-01-27T11:10:54;102586.63;;;9.41;59.36
6144;BME280;3103;49.492;8.474;2024-01-27T11:13:21;102587.34;;;9.35;60.45
6144;BME280;3103;49.492;8.474;2024-01-27T11:15:54;102582.03;;;9.49;59.88
6144;BME280;3103;49.492;8.474;2024-01-27T11:18:21;102577.72;;;8.95;60.61
6144;BME280;3103;49.492;8.474;2024-01-27T11:20:48;102576.81;;;8.71;61.50
6144;BME280;3103;49.492;8.474;2024-01-27T11:23:19;102580.28;;;8.49;61.96
6144;BME280;3103;49.492;8.474;2024-01-27T11:25:46;102576.25;;;8.53;61.49
6144;BME280;3103;49.492;8.474;2024-01-27T11:28:16;102568.84;;;8.63;60.43
6144;BME280;3103;49.492;8.474;2024-01-27T11:30:47;102569.28;;;8.27;62.08
6144;BME280;3103;49.492;8.474;2024-01-27T11:33:14;102563.28;;;8.73;61.99
6144;BME280;3103;49.492;8.474;2024-01-27T11:35:41;102569.09;;;9.07;61.66
6144;BME280;3103;49.492;8.474;2024-01-27T11:38:08;102569.88;;;9.16;61.93
6144;BME280;3103;49.492;8.474;2024-01-27T11:40:46;102558.16;;;8.86;59.72
6144;BME280;3103;49.492;8.474;2024-01-27T11:43:14;102562.22;;;8.43;60.67
6144;BME280;3103;49.492;8.474;2024-01-27T11:45:41;102558.88;;;8.49;60.76
6144;BME280;3103;49.492;8.474;2024-01-27T11:48:08;102555.34;;;8.79;59.77
6144;BME280;3103;49.492;8.474;2024-01-27T11:50:36;102544.84;;;8.30;58.32
6144;BME280;3103;49.492;8.474;2024-01-27T11:53:04;102541.38;;;8.14;58.76
6144;BME280;3103;49.492;8.474;2024-01-27T11:55:34;102534.28;;;8.29;58.65
6144;BME280;3103;49.492;8.474;2024-01-27T11:58:01;102532.34;;;8.62;58.92
6144;BME280;3103;49.492;8.474;2024-01-27T12:00:28;102526.50;;;8.89;58.09
6144;BME280;3103;49.492;8.474;2024-01-27T12:02:54;102522.13;;;9.11;57.99
6144;BME280;3103;49.492;8.474;2024-01-27T12:05:22;102513.06;;;9.12;58.87
6144;BME280;3103;49.492;8.474;2024-01-27T12:07:49;102517.47;;;9.28;56.41
6144;BME280;3103;49.492;8.474;2024-01-27T12:10:16;102520.69;;;9.01;57.02
6144;BME280;3103;49.492;8.474;2024-01-27T12:12:44;102519.31;;;9.28;56.11
6144;BME280;3103;49.492;8.474;2024-01-27T12:15:11;102512.88;;;9.37;55.15
6144;BME280;3103;49.492;8.474;2024-01-27T12:17:38;102527.31;;;9.36;54.73
6144;BME280;3103;49.492;8.474;2024-01-27T12:20:14;102533.56;;;9.28;55.76
6144;BME280;3103;49.492;8.474;2024-01-27T12:22:42;102531.31;;;9.17;56.07
6144;BME280;3103;49.492;8.474;2024-01-27T12:25:10;102538.94;;;9.28;55.76
6144;BME280;3103;49.492;8.474;2024-01-27T12:27:39;102532.56;;;9.29;55.61
6144;BME280;3103;49.492;8.474;2024-01-27T12:30:07;102543.19;;;9.22;54.61
6144;BME280;3103;49.492;8.474;2024-01-27T12:32:34;102536.97;;;9.22;54.38
6144;BME280;3103;49.492;8.474;2024-01-27T12:35:07;102541.78;;;9.27;54.42
6144;BME280;3103;49.492;8.474;2024-01-27T12:37:35;102529.72;;;9.08;55.75
6144;BME280;3103;49.492;8.474;2024-01-27T12:40:02;102536.88;;;9.15;55.64
6144;BME280;3103;49.492;8.474;2024-01-27T12:42:30;102539.22;;;9.10;54.87
6144;BME280;3103;49.492;8.474;2024-01-27T12:44:57;102538.00;;;9.21;54.37
6144;BME280;3103;49.492;8.474;2024-01-27T12:47:24;102532.06;;;9.26;53.14
6144;BME280;3103;49.492;8.474;2024-01-27T12:49:51;102526.78;;;8.95;53.85
6144;BME280;3103;49.492;8.474;2024-01-27T12:52:18;102525.41;;;8.99;53.14
6144;BME280;3103;49.492;8.474;2024-01-27T12:54:44;102513.66;;;9.00;53.05
6144;BME280;3103;49.492;8.474;2024-01-27T12:57:11;102517.53;;;8.97;53.58
6144;BME280;3103;49.492;8.474;2024-01-27T12:59:38;102519.22;;;9.21;53.20
6144;BME280;3103;49.492;8.474;2024-01-27T13:02:05;102515.53;;;9.22;53.25
6144;BME280;3103;49.492;8.474;2024-01-27T13:04:32;102519.59;;;9.18;52.21
6144;BME280;3103;49.492;8.474;2024-01-27T13:06:59;102513.16;;;9.04;52.48
6144;BME280;3103;49.492;8.474;2024-01-27T13:09:26;102511.13;;;9.06;51.48
6144;BME280;3103;49.492;8.474;2024-01-27T13:11:54;102517.31;;;9.07;51.94
6144;BME280;3103;49.492;8.474;2024-01-27T13:14:21;102512.75;;;8.84;53.31
6144;BME280;3103;49.492;8.474;2024-01-27T13:16:48;102512.13;;;9.05;52.32
6144;BME280;3103;49.492;8.474;2024-01-27T13:19:15;102501.59;;;9.04;53.00
6144;BME280;3103;49.492;8.474;2024-01-27T13:21:42;102497.53;;;9.08;53.19
6144;BME280;3103;49.492;8.474;2024-01-27T13:24:08;102493.22;;;8.99;53.59